createdAt,value
2019-04-06T00:02:31.126Z,30.70
2019-04-06T00:04:59.387Z,27.47
2019-04-06T00:07:27.669Z,30.47
2019-04-06T00:09:55.951Z,29.67
2019-04-06T00:12:24.194Z,33.40
2019-04-06T00:14:52.482Z,27.60
2019-04-06T00:17:20.758Z,30.27
2019-04-06T00:19:49.064Z,26.80
2019-04-06T00:22:17.327Z,29.20
2019-04-06T00:24:45.621Z,29.87
2019-04-06T00:27:13.891Z,28.60
2019-04-06T00:29:42.168Z,28.60
2019-04-06T00:32:14.898Z,25.00
2019-04-06T00:34:43.217Z,29.67
2019-04-06T00:37:11.513Z,27.47
2019-04-06T00:39:39.774Z,33.00
2019-04-06T00:42:08.043Z,28.90
2019-04-06T00:44:36.317Z,28.33
2019-04-06T00:47:04.661Z,27.70
2019-04-06T00:49:32.945Z,28.40
2019-04-06T00:52:01.220Z,30.47
2019-04-06T00:54:29.573Z,29.50
2019-04-06T00:56:57.892Z,28.83
2019-04-06T00:59:26.240Z,29.93
2019-04-06T01:01:55.395Z,28.70
2019-04-06T01:04:23.658Z,31.90
2019-04-06T01:06:51.981Z,31.57
2019-04-06T01:09:21.744Z,31.30
2019-04-06T01:11:50.030Z,31.37
2019-04-06T01:14:18.576Z,32.43
2019-04-06T01:16:46.845Z,29.30
2019-04-06T01:19:15.124Z,31.23
2019-04-06T01:21:43.389Z,31.17
2019-04-06T01:24:11.658Z,29.20
2019-04-06T01:26:39.932Z,33.53
2019-04-06T01:29:08.201Z,30.70
2019-04-06T01:31:36.467Z,29.40
2019-04-06T01:34:04.826Z,30.30
2019-04-06T01:36:33.101Z,28.87
2019-04-06T01:39:01.359Z,29.10
2019-04-06T01:41:29.643Z,28.47
2019-04-06T01:43:57.925Z,30.43
2019-04-06T01:46:26.205Z,33.10
2019-04-06T01:48:54.492Z,30.57
2019-04-06T01:51:22.778Z,28.13
2019-04-06T01:53:51.054Z,27.70
2019-04-06T01:56:19.349Z,30.73
2019-04-06T01:58:47.634Z,29.90
2019-04-06T02:01:23.344Z,30.23
2019-04-06T02:03:51.908Z,29.50
2019-04-06T02:06:20.176Z,30.57
2019-04-06T02:08:48.447Z,29.50
2019-04-06T02:11:16.812Z,29.20
2019-04-06T02:13:45.066Z,29.37
2019-04-06T02:16:13.350Z,29.40
2019-04-06T02:18:41.634Z,31.37
2019-04-06T02:21:09.920Z,28.77
2019-04-06T02:23:38.201Z,29.80
2019-04-06T02:26:06.455Z,26.53
2019-04-06T02:28:34.738Z,27.50
2019-04-06T02:31:10.106Z,31.10
2019-04-06T02:33:45.975Z,28.53
2019-04-06T02:36:18.607Z,28.70
2019-04-06T02:38:48.514Z,28.10
2019-04-06T02:41:20.817Z,30.17
2019-04-06T02:43:49.206Z,29.30
2019-04-06T02:46:17.562Z,28.40
2019-04-06T02:48:45.886Z,28.10
2019-04-06T02:51:14.152Z,31.93
2019-04-06T02:53:42.873Z,31.27
2019-04-06T02:56:11.172Z,30.20
2019-04-06T02:58:39.586Z,30.47
2019-04-06T03:01:07.828Z,29.90
2019-04-06T03:03:36.112Z,29.27
2019-04-06T03:06:04.785Z,29.90
2019-04-06T03:08:33.014Z,33.87
2019-04-06T03:11:01.279Z,36.67
2019-04-06T03:13:29.571Z,37.13
2019-04-06T03:15:57.900Z,38.10
2019-04-06T03:18:26.188Z,41.00
2019-04-06T03:20:54.450Z,35.27
2019-04-06T03:23:24.961Z,37.87
2019-04-06T03:25:52.906Z,35.60
2019-04-06T03:28:21.199Z,34.73
2019-04-06T03:30:49.465Z,37.73
2019-04-06T03:33:17.859Z,35.30
2019-04-06T03:35:49.239Z,31.30
2019-04-06T03:38:16.083Z,29.70
2019-04-06T03:40:44.441Z,31.13
2019-04-06T03:43:12.747Z,31.33
2019-04-06T03:45:40.996Z,28.87
2019-04-06T03:48:09.362Z,30.63
2019-04-06T03:50:37.617Z,29.70
2019-04-06T03:53:05.925Z,29.20
2019-04-06T03:55:34.237Z,29.27
2019-04-06T03:58:02.521Z,29.67
2019-04-06T04:00:30.838Z,28.57
2019-04-06T04:02:59.177Z,29.80
2019-04-06T04:05:27.471Z,27.93
2019-04-06T04:07:55.751Z,31.43
2019-04-06T04:10:35.663Z,30.13
2019-04-06T04:13:04.261Z,28.97
2019-04-06T04:15:32.576Z,30.17
2019-04-06T04:18:00.966Z,29.00
2019-04-06T04:20:29.291Z,28.77
2019-04-06T04:22:57.650Z,32.90
2019-04-06T04:25:25.925Z,26.90
2019-04-06T04:27:54.216Z,29.27
2019-04-06T04:30:32.524Z,29.03
2019-04-06T04:32:52.581Z,25.43
2019-04-06T04:35:21.008Z,27.97
2019-04-06T04:37:49.261Z,31.67
2019-04-06T04:40:17.793Z,29.07
2019-04-06T04:42:46.127Z,27.03
2019-04-06T04:45:14.649Z,29.00
2019-04-06T04:47:43.157Z,29.57
2019-04-06T04:50:11.569Z,28.97
2019-04-06T04:52:39.833Z,30.37
2019-04-06T04:55:08.965Z,30.20
2019-04-06T04:57:40.868Z,29.27
2019-04-06T05:00:08.013Z,30.03
2019-04-06T05:02:36.347Z,25.70
2019-04-06T05:05:06.270Z,28.93
2019-04-06T05:07:34.532Z,29.70
2019-04-06T05:10:03.273Z,29.73
2019-04-06T05:12:31.560Z,29.43
2019-04-06T05:15:08.627Z,29.03
2019-04-06T05:17:37.002Z,31.30
2019-04-06T05:20:07.687Z,32.03
2019-04-06T05:22:35.995Z,30.67
2019-04-06T05:25:06.058Z,32.60
2019-04-06T05:27:34.404Z,29.40
2019-04-06T05:30:03.039Z,30.60
2019-04-06T05:32:31.303Z,33.20
2019-04-06T05:34:59.582Z,31.03
2019-04-06T05:37:27.839Z,29.57
2019-04-06T05:39:56.098Z,35.07
2019-04-06T05:42:24.446Z,30.17
2019-04-06T05:44:52.787Z,35.40
2019-04-06T05:47:21.001Z,35.00
2019-04-06T05:49:49.272Z,28.60
2019-04-06T05:52:17.527Z,35.90
2019-04-06T05:54:45.802Z,29.37
2019-04-06T05:57:14.082Z,32.30
2019-04-06T05:59:42.370Z,26.93
2019-04-06T06:02:10.752Z,31.30
2019-04-06T06:04:40.577Z,32.10
2019-04-06T06:07:09.065Z,33.10
2019-04-06T06:09:37.329Z,30.13
2019-04-06T06:12:05.766Z,29.97
2019-04-06T06:14:34.063Z,30.10
2019-04-06T06:17:02.322Z,31.47
2019-04-06T06:19:30.591Z,31.87
2019-04-06T06:21:58.862Z,28.83
2019-04-06T06:24:27.133Z,30.30
2019-04-06T06:26:55.637Z,29.10
2019-04-06T06:29:24.072Z,31.27
2019-04-06T06:31:52.321Z,32.20
2019-04-06T06:34:20.605Z,33.90
2019-04-06T06:36:48.862Z,32.77
2019-04-06T06:39:17.132Z,28.17
2019-04-06T06:41:45.433Z,31.93
2019-04-06T06:44:13.678Z,29.20
2019-04-06T06:46:41.939Z,30.40
2019-04-06T06:49:10.211Z,29.47
2019-04-06T06:51:38.489Z,28.27
2019-04-06T06:54:07.527Z,27.10
2019-04-06T06:56:35.889Z,31.20
2019-04-06T06:59:04.209Z,32.53
2019-04-06T07:01:32.488Z,30.87
2019-04-06T07:04:00.755Z,28.30
2019-04-06T07:06:29.104Z,30.77
2019-04-06T07:08:57.407Z,28.60
2019-04-06T07:11:25.684Z,31.17
2019-04-06T07:13:53.962Z,26.40
2019-04-06T07:16:22.227Z,27.37
2019-04-06T07:18:50.514Z,29.33
2019-04-06T07:21:18.910Z,25.70
2019-04-06T07:23:47.374Z,26.57
2019-04-06T07:26:15.836Z,29.10
2019-04-06T07:28:44.038Z,27.80
2019-04-06T07:31:12.331Z,25.50
2019-04-06T07:33:40.620Z,23.80
2019-04-06T07:36:09.127Z,28.23
2019-04-06T07:38:38.288Z,27.63
2019-04-06T07:41:06.723Z,26.77
2019-04-06T07:43:35.008Z,24.43
2019-04-06T07:46:03.265Z,26.00
2019-04-06T07:48:31.566Z,26.73
2019-04-06T07:50:59.867Z,23.37
2019-04-06T07:53:28.221Z,26.37
2019-04-06T07:55:56.505Z,24.43
2019-04-06T07:58:24.831Z,24.97
2019-04-06T08:00:53.123Z,26.37
2019-04-06T08:03:21.599Z,24.93
2019-04-06T08:05:50.056Z,26.10
2019-04-06T08:08:18.341Z,25.00
2019-04-06T08:10:46.613Z,24.33
2019-04-06T08:13:14.888Z,27.70
2019-04-06T08:15:43.260Z,23.27
2019-04-06T08:18:11.537Z,23.03
2019-04-06T08:20:39.814Z,24.90
2019-04-06T08:23:08.119Z,23.03
2019-04-06T08:25:36.464Z,25.33
2019-04-06T08:28:04.963Z,24.43
2019-04-06T08:30:44.198Z,25.53
2019-04-06T08:33:03.419Z,24.50
2019-04-06T08:35:31.696Z,23.60
2019-04-06T08:37:59.971Z,23.20
2019-04-06T08:40:28.238Z,24.60
2019-04-06T08:42:56.615Z,24.03
2019-04-06T08:45:25.180Z,23.27
2019-04-06T08:47:53.584Z,23.63
2019-04-06T08:50:21.856Z,22.90
2019-04-06T08:52:50.148Z,24.77
2019-04-06T08:55:18.449Z,23.43
2019-04-06T08:57:46.701Z,25.97
2019-04-06T09:00:16.541Z,24.17
2019-04-06T09:02:44.811Z,25.40
2019-04-06T09:05:13.157Z,23.47
2019-04-06T09:07:41.431Z,22.50
2019-04-06T09:10:10.571Z,25.50
2019-04-06T09:12:39.367Z,22.33
2019-04-06T09:15:09.198Z,23.63
2019-04-06T09:17:37.548Z,25.57
2019-04-06T09:20:07.253Z,22.70
2019-04-06T09:22:35.641Z,24.83
2019-04-06T09:25:05.351Z,22.30
2019-04-06T09:27:33.575Z,24.13
2019-04-06T09:30:01.861Z,24.00
2019-04-06T09:32:30.128Z,24.00
2019-04-06T09:34:58.391Z,23.70
2019-04-06T09:37:27.638Z,23.73
2019-04-06T09:39:55.999Z,28.40
2019-04-06T09:42:24.194Z,22.23
2019-04-06T09:44:59.603Z,25.77
2019-04-06T09:47:29.531Z,24.60
2019-04-06T09:50:02.278Z,26.10
2019-04-06T09:52:32.431Z,25.00
2019-04-06T09:55:02.364Z,24.37
2019-04-06T09:57:38.179Z,25.50
2019-04-06T10:00:09.734Z,25.17
2019-04-06T10:02:39.647Z,26.60
2019-04-06T10:05:31.021Z,24.87
2019-04-06T10:08:17.731Z,26.20
2019-04-06T10:10:59.840Z,24.57
2019-04-06T10:13:46.291Z,25.80
2019-04-06T10:16:16.163Z,28.53
2019-04-06T10:18:51.790Z,27.50
2019-04-06T10:21:21.861Z,26.07
2019-04-06T10:23:57.770Z,28.27
2019-04-06T10:26:39.542Z,30.53
2019-04-06T10:29:12.149Z,28.87
2019-04-06T10:31:42.072Z,27.47
2019-04-06T10:34:29.765Z,28.87
2019-04-06T10:37:15.647Z,28.80
2019-04-06T10:39:51.503Z,30.20
2019-04-06T10:42:30.760Z,31.03
2019-04-06T10:45:03.372Z,28.50
2019-04-06T10:47:33.278Z,30.27
2019-04-06T10:50:03.210Z,27.83
2019-04-06T10:52:38.819Z,29.23
2019-04-06T10:55:14.242Z,30.27
2019-04-06T10:57:52.758Z,26.83
2019-04-06T11:00:28.405Z,28.40
2019-04-06T11:03:07.083Z,28.97
2019-04-06T11:05:45.657Z,29.43
2019-04-06T11:08:21.296Z,30.03
2019-04-06T11:11:07.324Z,27.67
2019-04-06T11:13:40.146Z,27.60
2019-04-06T11:16:26.229Z,28.03
2019-04-06T11:19:01.909Z,28.40
2019-04-06T11:21:31.893Z,28.50
2019-04-06T11:24:18.074Z,29.50
2019-04-06T11:26:48.159Z,28.17
2019-04-06T11:29:34.030Z,28.53
2019-04-06T11:32:20.198Z,28.20
2019-04-06T11:35:06.022Z,29.80
2019-04-06T11:37:44.678Z,27.90
2019-04-06T11:40:30.729Z,28.20
2019-04-06T11:43:06.490Z,27.77
2019-04-06T11:45:53.056Z,28.07
2019-04-06T11:48:41.036Z,27.57
2019-04-06T11:51:29.130Z,28.27
2019-04-06T11:54:07.901Z,27.60
2019-04-06T11:56:40.718Z,27.40
2019-04-06T11:59:19.557Z,26.90
2019-04-06T12:01:55.454Z,25.70
2019-04-06T12:04:25.391Z,25.13
2019-04-06T12:06:55.388Z,25.60
2019-04-06T12:09:30.711Z,24.30
2019-04-06T12:12:09.130Z,24.60
2019-04-06T12:14:54.117Z,25.53
2019-04-06T12:17:29.751Z,24.20
2019-04-06T12:20:17.220Z,25.60
2019-04-06T12:22:50.053Z,22.43
2019-04-06T12:25:19.109Z,22.97
2019-04-06T12:27:58.195Z,22.97
2019-04-06T12:30:38.668Z,21.63
2019-04-06T12:33:08.918Z,23.07
2019-04-06T12:35:44.547Z,25.33
2019-04-06T12:38:20.265Z,23.00
2019-04-06T12:40:56.307Z,23.60
2019-04-06T12:43:42.544Z,26.60
2019-04-06T12:46:18.356Z,24.43
2019-04-06T12:48:59.989Z,25.27
2019-04-06T12:51:38.761Z,23.47
2019-04-06T12:54:25.112Z,25.47
2019-04-06T12:57:06.978Z,23.67
2019-04-06T12:59:45.631Z,21.80
2019-04-06T13:02:21.260Z,20.83
2019-04-06T13:04:51.219Z,19.50
2019-04-06T13:07:23.842Z,20.00
2019-04-06T13:09:56.743Z,18.33
2019-04-06T13:12:32.660Z,18.30
2019-04-06T13:15:05.330Z,17.53
2019-04-06T13:17:50.294Z,16.17
2019-04-06T13:20:20.181Z,18.43
2019-04-06T13:23:06.164Z,17.23
2019-04-06T13:25:54.151Z,18.73
2019-04-06T13:28:30.238Z,20.97
2019-04-06T13:31:02.655Z,19.47
2019-04-06T13:33:34.576Z,18.83
2019-04-06T13:36:22.689Z,18.83
2019-04-06T13:39:09.065Z,19.57
2019-04-06T13:41:39.026Z,19.43
2019-04-06T13:44:20.885Z,19.80
2019-04-06T13:46:50.806Z,20.53
2019-04-06T13:49:36.841Z,20.43
2019-04-06T13:52:06.745Z,20.67
2019-04-06T13:54:52.943Z,18.93
2019-04-06T13:57:22.867Z,19.30
2019-04-06T13:59:52.780Z,18.87
2019-04-06T14:02:22.717Z,18.43
2019-04-06T14:05:08.997Z,19.60
2019-04-06T14:07:50.905Z,20.47
2019-04-06T14:10:37.859Z,18.73
2019-04-06T14:13:10.401Z,18.90
2019-04-06T14:15:55.878Z,20.47
2019-04-06T14:18:42.255Z,20.80
2019-04-06T14:21:21.101Z,20.33
2019-04-06T14:23:51.042Z,19.37
2019-04-06T14:26:37.005Z,18.97
2019-04-06T14:29:24.879Z,20.00
2019-04-06T14:31:55.102Z,20.07
2019-04-06T14:34:33.818Z,19.60
2019-04-06T14:37:09.484Z,21.07
2019-04-06T14:39:45.271Z,19.63
2019-04-06T14:42:17.888Z,18.93
2019-04-06T14:44:50.532Z,20.03
2019-04-06T14:47:29.759Z,19.37
2019-04-06T14:50:18.730Z,19.07
2019-04-06T14:52:48.659Z,20.97
2019-04-06T14:55:30.697Z,19.87
2019-04-06T14:58:03.707Z,20.07
2019-04-06T15:00:50.048Z,20.30
2019-04-06T15:03:20.616Z,20.17
2019-04-06T15:06:06.455Z,20.00
2019-04-06T15:08:56.044Z,20.07
2019-04-06T15:11:42.567Z,19.53
2019-04-06T15:14:27.521Z,18.90
2019-04-06T15:17:15.360Z,18.47
2019-04-06T15:19:50.789Z,19.70
2019-04-06T15:22:26.352Z,17.43
2019-04-06T15:24:56.715Z,19.40
2019-04-06T15:27:32.332Z,18.63
2019-04-06T15:30:05.159Z,19.77
2019-04-06T15:32:35.094Z,17.70
2019-04-06T15:35:21.863Z,18.27
2019-04-06T15:38:08.093Z,18.43
2019-04-06T15:40:46.977Z,30.53
2019-04-06T15:43:19.821Z,17.43
2019-04-06T15:45:58.796Z,17.50
2019-04-06T15:48:44.839Z,16.50
2019-04-06T15:51:17.967Z,16.90
2019-04-06T15:53:48.008Z,17.73
2019-04-06T15:59:23.572Z,17.13
2019-04-06T16:02:03.246Z,16.40
2019-04-06T16:04:33.973Z,18.67
2019-04-06T16:07:31.452Z,17.60
2019-04-06T16:10:11.599Z,18.53
2019-04-06T16:12:56.894Z,17.00
2019-04-06T16:15:27.106Z,18.97
2019-04-06T16:18:09.070Z,16.30
2019-04-06T16:20:47.514Z,17.57
2019-04-06T16:23:20.464Z,15.90
2019-04-06T16:25:50.894Z,15.90
2019-04-06T16:28:30.246Z,15.40
2019-04-06T16:31:09.007Z,16.83
2019-04-06T16:33:55.113Z,16.30
2019-04-06T16:36:41.586Z,15.87
2019-04-06T16:39:17.477Z,16.57
2019-04-06T16:42:03.537Z,15.90
2019-04-06T16:44:33.664Z,15.90
2019-04-06T16:47:03.565Z,16.43
2019-04-06T16:49:36.125Z,16.83
2019-04-06T16:52:15.216Z,16.57
2019-04-06T16:54:50.861Z,16.80
2019-04-06T16:57:21.662Z,16.73
2019-04-06T17:00:01.291Z,16.77
2019-04-06T17:02:32.216Z,15.70
2019-04-06T17:05:11.427Z,16.23
2019-04-06T17:07:47.957Z,17.13
2019-04-06T17:10:33.346Z,17.67
2019-04-06T17:13:19.938Z,15.90
2019-04-06T17:15:50.215Z,15.43
2019-04-06T17:18:22.898Z,15.63
2019-04-06T17:20:55.773Z,16.57
2019-04-06T17:23:31.485Z,17.57
2019-04-06T17:26:13.302Z,16.63
2019-04-06T17:28:49.114Z,16.60
2019-04-06T17:31:34.847Z,16.80
2019-04-06T17:34:10.860Z,16.10
2019-04-06T17:36:56.001Z,16.70
2019-04-06T17:39:37.942Z,16.50
2019-04-06T17:42:10.270Z,16.33
2019-04-06T17:44:56.625Z,17.30
2019-04-06T17:47:30.126Z,17.43
2019-04-06T17:50:12.170Z,17.57
2019-04-06T17:52:44.982Z,17.57
2019-04-06T17:55:31.198Z,17.80
2019-04-06T17:58:18.890Z,16.80
2019-04-06T18:00:48.801Z,16.17
2019-04-06T18:03:18.696Z,19.13
2019-04-06T18:05:57.243Z,19.17
2019-04-06T18:08:32.916Z,18.03
2019-04-06T18:11:08.594Z,17.60
2019-04-06T18:13:52.574Z,16.23
2019-04-06T18:16:23.298Z,16.40
2019-04-06T18:18:52.123Z,16.77
2019-04-06T18:21:20.552Z,17.37
2019-04-06T18:23:48.864Z,17.70
2019-04-06T18:26:19.069Z,17.77
2019-04-06T18:28:47.140Z,17.60
2019-04-06T18:31:25.942Z,18.23
2019-04-06T18:33:54.117Z,18.63
2019-04-06T18:36:24.399Z,19.63
2019-04-06T18:39:00.797Z,18.30
2019-04-06T18:41:29.300Z,20.30
2019-04-06T18:43:57.939Z,21.77
2019-04-06T18:46:26.311Z,22.07
2019-04-06T18:48:55.106Z,22.00
2019-04-06T18:51:23.570Z,25.07
2019-04-06T18:53:51.814Z,26.17
2019-04-06T18:56:20.114Z,24.87
2019-04-06T18:58:48.433Z,23.13
2019-04-06T19:01:16.723Z,26.57
2019-04-06T19:03:45.191Z,27.80
2019-04-06T19:06:13.601Z,25.47
2019-04-06T19:08:42.071Z,30.33
2019-04-06T19:11:10.265Z,27.30
2019-04-06T19:13:39.061Z,26.97
2019-04-06T19:16:07.526Z,25.90
2019-04-06T19:18:36.254Z,26.10
2019-04-06T19:21:04.759Z,26.20
2019-04-06T19:23:33.394Z,34.17
2019-04-06T19:26:01.951Z,45.07
2019-04-06T19:28:30.261Z,35.37
2019-04-06T19:30:58.625Z,33.90
2019-04-06T19:33:27.290Z,33.83
2019-04-06T19:35:55.757Z,37.10
2019-04-06T19:38:24.585Z,29.97
2019-04-06T19:40:53.028Z,29.00
2019-04-06T19:43:21.248Z,26.30
2019-04-06T19:45:49.996Z,24.27
2019-04-06T19:48:18.312Z,23.70
2019-04-06T19:50:47.522Z,23.60
2019-04-06T19:53:15.948Z,24.40
2019-04-06T19:55:44.614Z,21.60
2019-04-06T19:58:12.848Z,18.00
2019-04-06T20:00:41.304Z,18.40
2019-04-06T20:03:10.057Z,17.43
2019-04-06T20:05:39.003Z,19.07
2019-04-06T20:08:07.316Z,16.60
2019-04-06T20:10:35.601Z,16.40
2019-04-06T20:13:03.954Z,17.97
2019-04-06T20:15:32.232Z,19.47
2019-04-06T20:18:00.508Z,17.87
2019-04-06T20:20:28.849Z,18.07
2019-04-06T20:22:57.136Z,17.13
2019-04-06T20:25:25.418Z,16.83
2019-04-06T20:27:53.682Z,19.77
2019-04-06T20:30:22.042Z,17.07
2019-04-06T20:32:50.324Z,19.00
2019-04-06T20:35:18.608Z,19.17
2019-04-06T20:37:46.902Z,18.87
2019-04-06T20:40:15.456Z,24.30
2019-04-06T20:42:43.685Z,24.63
2019-04-06T20:45:12.987Z,27.63
2019-04-06T20:47:41.432Z,34.37
2019-04-06T20:50:10.254Z,25.80
2019-04-06T20:52:38.614Z,22.87
2019-04-06T20:55:08.028Z,21.57
2019-04-06T20:57:36.396Z,22.67
2019-04-06T21:00:07.207Z,22.70
2019-04-06T21:02:35.476Z,21.37
2019-04-06T21:05:05.765Z,21.67
2019-04-06T21:07:34.113Z,21.97
2019-04-06T21:10:03.102Z,25.00
2019-04-06T21:12:32.022Z,24.17
2019-04-06T21:15:01.045Z,21.20
2019-04-06T21:17:29.455Z,21.53
2019-04-06T21:19:58.233Z,22.60
2019-04-06T21:22:26.597Z,22.10
2019-04-06T21:24:56.445Z,21.30
2019-04-06T21:27:24.919Z,21.53
2019-04-06T21:29:57.415Z,20.93
2019-04-06T21:32:26.117Z,21.47
2019-04-06T21:34:58.695Z,19.23
2019-04-06T21:37:44.063Z,21.03
2019-04-06T21:40:12.620Z,20.00
2019-04-06T21:42:40.988Z,20.57
2019-04-06T21:45:09.487Z,19.27
2019-04-06T21:47:45.134Z,20.07
2019-04-06T21:50:17.282Z,19.47
2019-04-06T21:52:45.539Z,20.47
2019-04-06T21:55:15.258Z,19.60
2019-04-06T21:57:43.616Z,20.03
2019-04-06T22:00:15.594Z,20.43
2019-04-06T22:02:47.079Z,19.53
2019-04-06T22:05:15.970Z,18.53
2019-04-06T22:07:49.626Z,20.43
2019-04-06T22:10:15.626Z,18.93
2019-04-06T22:12:44.211Z,20.87
2019-04-06T22:15:14.795Z,22.37
2019-04-06T22:17:43.112Z,19.60
2019-04-06T22:20:12.317Z,19.00
2019-04-06T22:22:41.590Z,19.20
2019-04-06T22:25:09.950Z,20.90
2019-04-06T22:27:38.306Z,21.77
2019-04-06T22:30:10.318Z,19.97
2019-04-06T22:32:39.210Z,19.80
2019-04-06T22:35:07.850Z,20.47
2019-04-06T22:37:38.024Z,19.93
2019-04-06T22:40:07.669Z,19.83
2019-04-06T22:42:37.366Z,20.83
2019-04-06T22:45:09.317Z,20.47
2019-04-06T22:47:38.070Z,20.83
2019-04-06T22:50:07.036Z,21.23
2019-04-06T22:52:35.382Z,20.40
2019-04-06T22:55:07.465Z,20.63
2019-04-06T22:57:37.333Z,19.57
2019-04-06T23:00:08.874Z,19.90
2019-04-06T23:02:38.784Z,21.53
2019-04-06T23:05:18.955Z,22.57
2019-04-06T23:07:47.209Z,21.70
2019-04-06T23:10:17.133Z,22.30
2019-04-06T23:12:45.395Z,20.97
2019-04-06T23:15:17.753Z,21.97
2019-04-06T23:17:46.110Z,20.77
2019-04-06T23:20:17.452Z,19.83
2019-04-06T23:22:46.183Z,20.40
2019-04-06T23:25:16.251Z,19.73
2019-04-06T23:27:44.527Z,19.87
2019-04-06T23:30:13.170Z,20.20
2019-04-06T23:32:42.274Z,20.57
2019-04-06T23:35:12.894Z,20.00
2019-04-06T23:37:45.886Z,20.37
2019-04-06T23:40:14.548Z,20.97
2019-04-06T23:42:43.491Z,20.37
2019-04-06T23:45:13.915Z,21.80
2019-04-06T23:47:44.557Z,18.87
2019-04-06T23:50:33.839Z,18.87
2019-04-06T23:53:13.825Z,18.93
2019-04-06T23:55:50.735Z,20.23
2019-04-06T23:58:17.979Z,19.20
